Time;durP1;ratioP1;P1;durP2;ratioP2;P2;SDS_P1;SDS_P2;PMS_P1;PMS_P2;Temp;Humidity;BMP_temperature;BMP_pressure;BME280_temperature;BME280_humidity;BME280_pressure;Samples;Min_cycle;Max_cycle;Signal;HPM_P1;HPM_P2
2023/05/25 00:00:38;;;;;;;34.90;25.30;;;;;;;13.28;76.50;100415.73;103365;1256;107586;-80
2023/05/25 00:03:32;;;;;;;35.20;26.10;;;;;;;13.24;76.67;100413.27;103353;1256;96962;-79
2023/05/25 00:06:01;;;;;;;43.60;27.00;;;;;;;13.22;76.88;100413.20;103479;1253;108393;-81
2023/05/25 00:08:28;;;;;;;35.20;26.40;;;;;;;13.19;76.83;100411.39;103486;1253;96452;-81
2023/05/25 00:10:56;;;;;;;33.50;25.70;;;;;;;13.16;77.04;100410.95;103471;1253;138456;-81
2023/05/25 00:13:24;;;;;;;38.40;26.90;;;;;;;13.12;77.16;100411.46;103625;1257;107775;-80
2023/05/25 00:15:51;;;;;;;42.10;27.10;;;;;;;13.08;77.13;100411.96;103295;1253;138762;-80
2023/05/25 00:18:19;;;;;;;40.80;26.50;;;;;;;13.07;77.43;100411.66;103480;1257;107925;-82
2023/05/25 00:20:47;;;;;;;42.10;26.40;;;;;;;13.05;77.60;100411.77;103423;1256;96445;-80
2023/05/25 00:23:14;;;;;;;39.70;27.00;;;;;;;13.03;77.59;100415.48;103325;1256;138434;-80
2023/05/25 00:25:42;;;;;;;41.40;28.20;;;;;;;13.03;77.72;100414.11;103384;1254;107395;-80
2023/05/25 00:28:10;;;;;;;41.60;27.90;;;;;;;13.01;77.92;100414.86;103531;1256;138701;-78
2023/05/25 00:30:38;;;;;;;41.40;28.50;;;;;;;13.01;77.93;100413.63;103359;1254;107785;-78
2023/05/25 00:33:05;;;;;;;46.70;28.80;;;;;;;13.03;78.11;100417.05;103476;1257;96455;-78
2023/05/25 00:35:33;;;;;;;48.10;29.70;;;;;;;13.02;78.33;100417.96;103496;1253;138384;-79
2023/05/25 00:38:00;;;;;;;42.60;28.70;;;;;;;13.03;78.43;100422.66;103405;1257;109098;-79
2023/05/25 00:40:27;;;;;;;46.40;28.90;;;;;;;13.03;78.57;100421.41;103353;1255;138504;-79
2023/05/25 00:42:55;;;;;;;51.20;30.50;;;;;;;13.03;78.62;100420.56;103413;1256;108061;-78
2023/05/25 00:45:23;;;;;;;46.30;29.30;;;;;;;13.01;78.74;100419.75;103478;1257;96407;-79
2023/05/25 00:47:53;;;;;;;49.50;29.40;;;;;;;13.01;78.75;100421.16;103350;1254;138112;-78
2023/05/25 00:50:33;;;;;;;45.10;28.90;;;;;;;13.02;78.85;100422.15;103625;1256;106525;-79
2023/05/25 00:53:01;;;;;;;50.60;29.80;;;;;;;13.02;79.04;100422.86;103320;1255;138585;-80
2023/05/25 00:55:33;;;;;;;46.70;30.40;;;;;;;13.03;79.11;100423.17;103589;1255;107730;-79
2023/05/25 00:58:03;;;;;;;51.10;30.90;;;;;;;13.05;79.36;100427.63;103564;1253;137722;-78
2023/05/25 01:00:33;;;;;;;56.00;30.90;;;;;;;13.04;79.45;100426.61;103471;1257;111092;-79
2023/05/25 01:03:00;;;;;;;56.00;32.70;;;;;;;13.04;79.54;100428.73;104297;1254;106388;-81
2023/05/25 01:05:29;;;;;;;57.20;33.30;;;;;;;13.03;79.58;100429.62;103606;1253;137535;-79
2023/05/25 01:08:02;;;;;;;60.30;34.00;;;;;;;13.02;79.74;100428.98;103767;1253;106390;-80
2023/05/25 01:10:31;;;;;;;64.50;34.30;;;;;;;13.01;79.87;100430.23;103526;1251;138619;-79
2023/05/25 01:12:59;;;;;;;54.70;32.20;;;;;;;12.99;79.99;100430.32;103715;1255;109021;-79
2023/05/25 01:15:28;;;;;;;66.60;35.10;;;;;;;12.99;80.25;100434.69;103480;1256;109717;-79
2023/05/25 01:17:58;;;;;;;65.10;34.10;;;;;;;12.97;80.32;100434.23;103519;1254;96322;-78
2023/05/25 01:20:28;;;;;;;70.10;35.80;;;;;;;12.96;80.30;100436.02;103743;1254;107083;-79
2023/05/25 01:23:00;;;;;;;64.20;34.80;;;;;;;12.97;80.43;100438.77;103646;1253;139120;-81
2023/05/25 01:25:33;;;;;;;72.30;37.00;;;;;;;12.99;80.65;100439.39;103636;1254;109241;-79
2023/05/25 01:28:06;;;;;;;68.90;36.30;;;;;;;13.02;80.89;100443.64;103789;1254;138820;-80
2023/05/25 01:30:36;;;;;;;71.60;35.60;;;;;;;13.01;80.88;100440.02;103583;1256;97819;-79
2023/05/25 01:33:05;;;;;;;76.30;38.30;;;;;;;12.99;80.88;100437.80;103490;1256;109877;-79
2023/05/25 01:35:35;;;;;;;75.50;37.70;;;;;;;12.98;81.11;100434.35;103329;1256;138620;-79
2023/05/25 01:38:02;;;;;;;69.40;38.00;;;;;;;12.99;81.19;100433.46;103783;1254;109820;-79
2023/05/25 01:40:30;;;;;;;74.80;38.40;;;;;;;12.98;81.30;100431.94;103384;1253;138611;-79
2023/05/25 01:43:00;;;;;;;70.10;37.90;;;;;;;12.97;81.36;100430.90;103503;1254;96448;-80
2023/05/25 01:45:27;;;;;;;70.50;38.00;;;;;;;12.96;81.61;100430.23;104109;1254;106997;-78
2023/05/25 01:48:07;;;;;;;69.50;39.20;;;;;;;12.97;81.63;100435.98;103360;1254;96475;-79
2023/05/25 01:50:43;;;;;;;70.70;38.00;;;;;;;12.97;81.73;100434.91;103454;1256;109152;-80
2023/05/25 01:53:19;;;;;;;63.30;35.60;;;;;;;12.97;81.86;100425.33;103237;1256;138630;-80
2023/05/25 01:55:53;;;;;;;57.50;35.40;;;;;;;12.96;82.18;100427.11;103288;1259;97103;-78
2023/05/25 01:58:22;;;;;;;61.80;36.80;;;;;;;12.95;82.13;100429.60;104066;1256;138544;-80
2023/05/25 02:00:51;;;;;;;62.80;34.70;;;;;;;12.96;82.18;100429.58;103358;1255;97647;-80
2023/05/25 02:03:19;;;;;;;65.70;36.60;;;;;;;12.96;82.16;100428.15;103411;1257;109926;-79
2023/05/25 02:05:48;;;;;;;59.50;35.20;;;;;;;12.96;82.25;100427.97;103248;1253;138604;-80
2023/05/25 02:08:16;;;;;;;57.00;34.40;;;;;;;12.98;82.28;100425.45;103448;1259;96305;-80
2023/05/25 02:10:43;;;;;;;63.90;37.20;;;;;;;12.97;82.22;100422.18;103368;1253;138297;-80
2023/05/25 02:13:11;;;;;;;55.00;36.00;;;;;;;12.97;82.38;100426.03;103387;1257;96421;-79
2023/05/25 02:15:38;;;;;;;58.10;35.50;;;;;;;12.97;82.46;100426.53;103367;1255;138609;-79
2023/05/25 02:18:07;;;;;;;57.00;34.20;;;;;;;12.97;82.59;100428.98;103417;1258;108725;-80
2023/05/25 02:20:36;;;;;;;61.10;36.80;;;;;;;12.98;82.53;100423.54;103738;1253;96915;-79
2023/05/25 02:23:03;;;;;;;53.10;33.70;;;;;;;12.99;82.65;100425.77;103372;1257;138367;-79
2023/05/25 02:25:31;;;;;;;56.00;34.80;;;;;;;12.98;82.80;100428.23;103373;1258;96424;-79
2023/05/25 02:27:58;;;;;;;62.20;35.40;;;;;;;12.98;82.86;100424.77;103369;1259;138512;-79
2023/05/25 02:30:26;;;;;;;60.40;36.90;;;;;;;12.98;82.97;100427.23;103593;1257;107791;-78
2023/05/25 02:32:54;;;;;;;55.60;35.00;;;;;;;12.98;82.75;100434.36;103441;1253;96858;-79
2023/05/25 02:35:22;;;;;;;59.30;35.30;;;;;;;12.97;82.90;100434.77;103527;1256;138299;-78
2023/05/25 02:37:50;;;;;;;57.90;34.20;;;;;;;12.95;82.89;100439.20;103406;1260;96459;-78
2023/05/25 02:40:18;;;;;;;55.70;34.70;;;;;;;12.93;82.96;100442.77;103295;1257;138454;-78
2023/05/25 02:42:46;;;;;;;59.80;35.50;;;;;;;12.91;82.83;100441.95;103442;1254;108689;-77
2023/05/25 02:45:14;;;;;;;58.20;33.60;;;;;;;12.92;82.87;100442.11;103327;1254;96316;-78
2023/05/25 02:47:41;;;;;;;56.10;35.60;;;;;;;12.91;83.12;100442.83;103353;1257;138454;-77
2023/05/25 02:50:10;;;;;;;57.40;34.20;;;;;;;12.91;82.99;100444.23;103437;1258;96642;-78
2023/05/25 02:52:41;;;;;;;55.30;33.70;;;;;;;12.92;82.99;100441.59;104006;1254;138467;-78
2023/05/25 02:55:12;;;;;;;53.20;33.90;;;;;;;12.92;83.07;100443.84;103555;1256;107091;-78
2023/05/25 02:57:39;;;;;;;52.50;34.00;;;;;;;12.94;83.04;100439.23;103571;1256;138806;-78
2023/05/25 03:00:11;;;;;;;54.40;32.90;;;;;;;12.94;83.09;100440.80;103705;1255;108221;-79
2023/05/25 03:02:38;;;;;;;49.40;32.60;;;;;;;12.94;83.30;100439.58;103484;1259;96516;-78
2023/05/25 03:05:07;;;;;;;51.50;33.80;;;;;;;12.95;83.16;100441.30;103425;1257;138341;-79
2023/05/25 03:07:35;;;;;;;57.30;34.50;;;;;;;12.96;83.32;100441.23;104100;1254;108209;-79
2023/05/25 03:10:02;;;;;;;48.60;32.70;;;;;;;12.96;83.36;100436.88;103297;1260;138702;-80
2023/05/25 03:12:31;;;;;;;59.50;34.10;;;;;;;12.95;83.29;100443.02;103597;1256;109041;-79
2023/05/25 03:14:58;;;;;;;56.80;35.40;;;;;;;12.97;83.35;100443.85;103436;1254;96429;-79
2023/05/25 03:17:26;;;;;;;56.20;35.50;;;;;;;12.95;83.33;100446.00;103367;1259;139382;-79
2023/05/25 03:19:53;;;;;;;49.50;33.70;;;;;;;12.94;83.34;100447.62;104156;1254;107764;-78
2023/05/25 03:22:21;;;;;;;48.00;32.90;;;;;;;12.95;83.32;100455.95;103567;1254;138633;-78
2023/05/25 03:24:49;;;;;;;57.40;34.70;;;;;;;12.95;83.38;100457.17;103584;1258;108222;-79
2023/05/25 03:27:16;;;;;;;52.20;33.30;;;;;;;12.96;83.43;100461.14;103309;1254;96550;-78
2023/05/25 03:29:44;;;;;;;56.80;33.00;;;;;;;12.97;83.31;100462.87;103802;1254;139376;-78
2023/05/25 03:32:12;;;;;;;52.60;34.10;;;;;;;12.98;83.46;100466.84;103556;1257;107096;-78
2023/05/25 03:34:40;;;;;;;55.00;33.90;;;;;;;12.98;83.38;100471.17;103504;1254;138616;-76
2023/05/25 03:37:11;;;;;;;56.50;35.10;;;;;;;13.01;83.48;100473.52;103755;1258;108376;-78
2023/05/25 03:39:38;;;;;;;56.00;33.40;;;;;;;13.04;83.36;100477.42;103666;1259;138950;-77
2023/05/25 03:42:07;;;;;;;55.40;34.00;;;;;;;13.06;83.40;100479.78;103434;1254;110526;-77
2023/05/25 03:44:35;;;;;;;53.00;33.70;;;;;;;13.09;83.32;100477.75;103864;1254;107764;-78
2023/05/25 03:47:04;;;;;;;56.40;34.30;;;;;;;13.10;83.31;100478.23;103671;1255;138648;-79
2023/05/25 03:49:32;;;;;;;53.50;33.80;;;;;;;13.11;83.31;100473.98;103823;1254;107657;-79
2023/05/25 03:52:00;;;;;;;58.20;35.60;;;;;;;13.15;83.26;100471.42;103712;1255;138840;-78
2023/05/25 03:54:27;;;;;;;51.90;32.00;;;;;;;13.18;83.18;100468.34;103423;1260;110769;-78
2023/05/25 03:56:55;;;;;;;50.80;33.20;;;;;;;13.21;83.15;100468.74;104095;1254;108664;-79
2023/05/25 03:59:38;;;;;;;50.20;32.50;;;;;;;13.24;83.13;100471.60;103756;1258;138614;-80
2023/05/25 04:02:05;;;;;;;52.70;31.70;;;;;;;13.23;82.92;100472.32;103413;1257;106646;-79
2023/05/25 04:04:33;;;;;;;49.70;32.00;;;;;;;13.26;82.90;100473.96;103617;1255;138557;-79
2023/05/25 04:07:02;;;;;;;45.50;31.70;;;;;;;13.27;83.07;100472.16;103747;1254;109995;-79
2023/05/25 04:09:29;;;;;;;51.60;32.20;;;;;;;13.29;83.00;100476.83;103582;1254;108106;-78
2023/05/25 04:11:57;;;;;;;47.80;31.80;;;;;;;13.31;82.82;100479.91;103527;1267;96447;-78
2023/05/25 04:14:24;;;;;;;45.40;31.00;;;;;;;13.33;82.82;100485.39;103491;1254;108371;-79
2023/05/25 04:16:52;;;;;;;48.80;32.10;;;;;;;13.38;82.86;100489.58;103193;1254;138608;-78
2023/05/25 04:19:19;;;;;;;49.80;31.00;;;;;;;13.40;82.67;100488.77;103457;1254;110203;-79
2023/05/25 04:21:46;;;;;;;52.80;32.50;;;;;;;13.42;82.55;100491.67;103238;1255;138664;-79
2023/05/25 04:24:14;;;;;;;45.50;31.30;;;;;;;13.44;82.44;100491.05;103484;1257;96974;-78
2023/05/25 04:26:42;;;;;;;45.00;31.10;;;;;;;13.48;82.50;100489.86;103324;1254;107719;-79
2023/05/25 04:29:11;;;;;;;44.30;30.30;;;;;;;13.52;82.37;100494.59;103372;1254;138599;-79
2023/05/25 04:31:58;;;;;;;46.20;31.10;;;;;;;13.53;82.00;100496.47;103220;1258;110977;-78
2023/05/25 04:34:43;;;;;;;46.50;31.50;;;;;;;13.59;82.13;100494.66;103433;1254;138614;-79
2023/05/25 04:37:16;;;;;;;48.10;30.30;;;;;;;13.63;82.16;100489.77;103402;1254;96418;-79
2023/05/25 04:39:44;;;;;;;44.60;30.90;;;;;;;13.70;82.11;100493.69;103429;1257;138681;-79
2023/05/25 04:42:12;;;;;;;55.10;32.00;;;;;;;13.74;81.77;100490.00;103444;1251;96578;-79
2023/05/25 04:44:39;;;;;;;51.20;30.90;;;;;;;13.77;81.52;100492.85;103387;1254;109546;-80
2023/05/25 04:47:09;;;;;;;44.90;29.00;;;;;;;13.77;81.40;100495.14;103227;1257;140569;-78
2023/05/25 04:49:37;;;;;;;45.50;31.20;;;;;;;13.75;81.34;100495.19;103454;1257;96495;-78
2023/05/25 04:52:07;;;;;;;46.00;30.40;;;;;;;13.76;81.14;100494.27;103249;1255;138758;-76
2023/05/25 04:54:35;;;;;;;42.00;29.20;;;;;;;13.77;81.19;100498.64;103581;1254;96460;-79
2023/05/25 04:57:03;;;;;;;46.40;30.50;;;;;;;13.76;81.12;100497.98;103302;1254;109081;-76
2023/05/25 04:59:31;;;;;;;49.00;30.00;;;;;;;13.74;80.90;100499.60;103285;1257;138480;-77
2023/05/25 05:01:59;;;;;;;45.90;30.30;;;;;;;13.71;80.98;100498.36;103454;1254;96440;-77
2023/05/25 05:04:27;;;;;;;44.40;29.70;;;;;;;13.71;81.21;100499.58;103179;1254;138565;-78
2023/05/25 05:06:55;;;;;;;40.60;30.10;;;;;;;13.70;81.15;100505.38;104020;1254;96446;-75
2023/05/25 05:09:26;;;;;;;41.90;29.40;;;;;;;13.70;81.06;100501.71;103429;1257;109504;-80
2023/05/25 05:11:56;;;;;;;48.20;32.60;;;;;;;13.70;81.17;100499.63;103411;1257;137676;-77
2023/05/25 05:14:23;;;;;;;50.20;32.00;;;;;;;13.70;81.09;100503.47;103299;1254;96505;-78
2023/05/25 05:16:52;;;;;;;43.40;29.60;;;;;;;13.72;81.18;100501.28;103335;1256;138428;-76
2023/05/25 05:19:20;;;;;;;51.00;29.30;;;;;;;13.74;81.10;100502.06;103297;1255;96566;-80
2023/05/25 05:21:51;;;;;;;42.00;29.00;;;;;;;13.78;80.98;100505.92;103305;1257;138916;-77
2023/05/25 05:24:19;;;;;;;49.50;29.80;;;;;;;13.81;80.99;100512.27;103104;1257;109076;-79
2023/05/25 05:26:49;;;;;;;48.50;30.50;;;;;;;13.85;81.02;100508.08;103415;1251;96427;-77
2023/05/25 05:29:46;;;;;;;45.50;30.90;;;;;;;13.92;80.90;100513.74;103840;1254;138457;-78
2023/05/25 05:32:14;;;;;;;42.80;28.20;;;;;;;13.95;80.67;100512.55;103688;1253;96505;-80
2023/05/25 05:34:42;;;;;;;40.30;28.30;;;;;;;13.99;80.62;100517.82;103535;1254;138365;-77
2023/05/25 05:37:21;;;;;;;44.70;28.30;;;;;;;14.03;80.40;100520.83;103200;1257;108269;-80
2023/05/25 05:39:51;;;;;;;42.30;29.60;;;;;;;14.03;80.26;100518.34;103224;1256;138812;-77
2023/05/25 05:42:19;;;;;;;42.70;27.20;;;;;;;14.05;80.39;100522.11;103192;1254;108572;-63
2023/05/25 05:44:46;;;;;;;42.40;29.20;;;;;;;14.11;80.27;100524.80;103305;1253;96407;-79
2023/05/25 05:47:13;;;;;;;46.40;29.70;;;;;;;14.13;79.92;100525.77;103274;1254;138387;-79
2023/05/25 05:49:41;;;;;;;44.90;30.20;;;;;;;14.13;79.90;100526.30;104074;1257;108590;-79
2023/05/25 05:52:10;;;;;;;48.10;30.00;;;;;;;14.13;79.81;100529.61;104681;1253;138828;-80
2023/05/25 05:54:38;;;;;;;43.90;28.70;;;;;;;14.15;79.92;100533.05;104818;1254;107898;-80
2023/05/25 05:57:09;;;;;;;42.70;28.50;;;;;;;14.17;79.74;100531.73;104454;1253;94595;-80
2023/05/25 05:59:36;;;;;;;39.20;27.50;;;;;;;14.19;79.52;100530.98;103370;1257;138370;-81
2023/05/25 06:02:06;;;;;;;42.80;26.60;;;;;;;14.22;79.66;100536.23;103390;1254;107575;-63
2023/05/25 06:04:34;;;;;;;42.20;28.20;;;;;;;14.28;79.70;100540.69;103892;1254;138616;-65
2023/05/25 06:07:02;;;;;;;40.80;28.30;;;;;;;14.36;79.59;100542.12;104303;1254;107392;-63
2023/05/25 06:09:29;;;;;;;46.20;29.20;;;;;;;14.39;79.31;100542.86;103845;1255;96485;-65
2023/05/25 06:11:59;;;;;;;39.30;26.80;;;;;;;14.44;79.23;100547.21;103348;1254;109812;-63
2023/05/25 06:14:27;;;;;;;42.60;27.30;;;;;;;14.48;79.10;100547.73;103394;1257;108661;-64
2023/05/25 06:16:57;;;;;;;38.40;26.60;;;;;;;14.50;78.89;100546.92;104311;1254;138722;-63
2023/05/25 06:19:25;;;;;;;37.90;26.10;;;;;;;14.58;78.81;100548.38;103288;1257;108608;-63
2023/05/25 06:21:52;;;;;;;38.60;27.00;;;;;;;14.64;78.67;100555.10;103388;1254;138663;-63
2023/05/25 06:24:20;;;;;;;39.60;27.50;;;;;;;14.69;78.29;100556.11;103481;1257;109688;-63
2023/05/25 06:26:47;;;;;;;40.50;26.70;;;;;;;14.73;78.34;100562.23;103387;1253;108283;-74
2023/05/25 06:29:16;;;;;;;39.60;27.90;;;;;;;14.77;78.23;100570.44;103114;1254;138900;-80
2023/05/25 06:31:43;;;;;;;35.20;27.00;;;;;;;14.82;78.18;100572.48;103456;1255;108368;-78
2023/05/25 06:34:11;;;;;;;39.80;26.70;;;;;;;14.87;77.97;100570.50;103402;1254;138843;-79
2023/05/25 06:36:38;;;;;;;45.00;27.70;;;;;;;14.92;77.62;100571.91;103403;1254;110940;-77
2023/05/25 06:39:09;;;;;;;36.10;28.10;;;;;;;14.92;77.27;100569.98;103488;1254;108363;-77
2023/05/25 06:41:40;;;;;;;43.00;27.50;;;;;;;14.92;77.26;100572.05;103200;1257;138540;-81
2023/05/25 06:44:07;;;;;;;38.60;26.70;;;;;;;14.94;77.21;100572.86;103355;1253;107646;-83
2023/05/25 06:46:45;;;;;;;41.10;28.80;;;;;;;14.97;77.11;100573.27;103230;1257;138579;-82
2023/05/25 06:49:14;;;;;;;42.80;27.90;;;;;;;15.00;77.15;100575.70;103469;1254;109956;-84
2023/05/25 06:51:41;;;;;;;37.00;27.50;;;;;;;15.00;76.83;100578.33;103188;1254;138484;-79
2023/05/25 06:54:10;;;;;;;40.10;27.00;;;;;;;15.01;76.71;100577.39;103393;1252;96443;-68
2023/05/25 06:56:38;;;;;;;37.30;25.90;;;;;;;15.03;76.56;100579.44;103359;1256;108811;-68
2023/05/25 06:59:05;;;;;;;39.00;26.60;;;;;;;15.00;76.46;100579.76;103288;1256;138611;-68
2023/05/25 07:01:33;;;;;;;40.00;27.90;;;;;;;15.02;76.63;100579.64;103341;1254;109231;-68
2023/05/25 07:04:00;;;;;;;41.40;27.10;;;;;;;15.05;76.62;100582.46;103050;1254;229140;-68
2023/05/25 07:06:27;;;;;;;41.20;27.70;;;;;;;15.08;76.41;100581.66;103351;1254;96307;-68
2023/05/25 07:08:55;;;;;;;39.40;27.10;;;;;;;15.06;76.31;100577.72;103290;1253;106992;-68
2023/05/25 07:11:22;;;;;;;40.40;27.20;;;;;;;15.05;76.17;100577.95;103139;1254;138457;-68
2023/05/25 07:13:49;;;;;;;39.50;27.10;;;;;;;15.06;76.28;100573.50;103421;1253;109017;-69
2023/05/25 07:16:16;;;;;;;37.90;26.70;;;;;;;15.14;76.17;100575.07;103103;1257;139043;-70
2023/05/25 07:18:44;;;;;;;36.30;26.60;;;;;;;15.19;76.06;100571.88;103451;1254;96314;-69
2023/05/25 07:21:11;;;;;;;36.00;25.50;;;;;;;15.22;75.86;100571.73;103309;1256;107690;-69
2023/05/25 07:23:39;;;;;;;35.30;26.10;;;;;;;15.24;75.77;100573.75;103272;1254;138827;-70
2023/05/25 07:26:07;;;;;;;39.50;28.20;;;;;;;15.30;75.66;100574.20;103356;1253;109114;-69
2023/05/25 07:28:34;;;;;;;36.40;25.60;;;;;;;15.35;75.69;100572.87;103200;1256;138556;-70
2023/05/25 07:31:01;;;;;;;37.20;26.30;;;;;;;15.41;75.68;100573.12;103354;1254;96402;-70
2023/05/25 07:33:28;;;;;;;40.30;25.80;;;;;;;15.49;75.47;100573.98;103354;1254;106812;-70
2023/05/25 07:35:55;;;;;;;37.50;25.50;;;;;;;15.60;75.30;100572.06;103216;1253;138517;-70
2023/05/25 07:38:23;;;;;;;33.10;24.80;;;;;;;15.68;74.81;100574.15;103340;1257;109056;-70
2023/05/25 07:40:51;;;;;;;34.80;24.70;;;;;;;15.70;74.47;100577.20;103116;1254;138761;-70
2023/05/25 07:43:19;;;;;;;35.60;25.00;;;;;;;15.75;74.38;100577.49;103179;1259;96508;-71
2023/05/25 07:45:47;;;;;;;36.30;24.60;;;;;;;15.77;73.93;100576.72;103216;1254;138528;-72
2023/05/25 07:48:14;;;;;;;40.10;24.80;;;;;;;15.80;74.06;100574.30;103328;1253;96588;-71
2023/05/25 07:50:42;;;;;;;36.20;24.20;;;;;;;15.88;74.02;100572.82;104038;1253;110190;-65
2023/05/25 07:53:09;;;;;;;32.00;24.60;;;;;;;15.97;73.80;100569.58;103269;1253;138618;-66
2023/05/25 07:55:37;;;;;;;33.40;24.10;;;;;;;16.05;73.68;100572.67;103572;1255;96312;-65
2023/05/25 07:58:06;;;;;;;38.80;25.50;;;;;;;16.19;73.77;100567.42;103277;1254;139083;-65
2023/05/25 08:00:33;;;;;;;31.20;25.30;;;;;;;16.39;73.28;100564.84;103307;1254;96524;-66
2023/05/25 08:03:01;;;;;;;29.60;22.70;;;;;;;16.55;72.82;100562.24;103291;1253;109225;-66
2023/05/25 08:05:29;;;;;;;36.40;23.20;;;;;;;16.65;72.23;100565.61;103341;1256;138658;-65
2023/05/25 08:07:56;;;;;;;33.50;23.60;;;;;;;16.74;72.06;100568.52;103461;1253;96598;-66
2023/05/25 08:10:30;;;;;;;31.50;23.20;;;;;;;16.85;71.83;100569.11;103374;1256;138838;-65
2023/05/25 08:12:57;;;;;;;32.40;23.50;;;;;;;16.95;71.38;100571.95;103435;1253;96510;-65
2023/05/25 08:15:26;;;;;;;31.20;23.90;;;;;;;17.08;71.18;100572.30;103777;1253;109605;-65
2023/05/25 08:17:55;;;;;;;33.90;23.70;;;;;;;17.20;70.88;100568.45;103788;1253;138318;-65
2023/05/25 08:20:24;;;;;;;29.10;23.00;;;;;;;17.54;70.59;100567.15;103378;1253;97020;-65
2023/05/25 08:22:53;;;;;;;31.10;23.10;;;;;;;17.76;69.55;100565.55;103478;1254;138425;-65
2023/05/25 08:25:21;;;;;;;31.20;22.00;;;;;;;18.01;69.26;100560.41;103784;1253;96423;-65
2023/05/25 08:27:48;;;;;;;27.60;22.10;;;;;;;18.26;68.37;100562.67;103384;1253;138733;-65
2023/05/25 08:30:16;;;;;;;29.30;22.20;;;;;;;18.54;67.98;100565.23;103692;1253;107615;-65
2023/05/25 08:32:43;;;;;;;29.30;22.00;;;;;;;18.96;67.39;100570.63;103422;1254;96400;-67
2023/05/25 08:35:12;;;;;;;29.40;20.80;;;;;;;19.27;66.39;100570.76;104069;1256;138383;-66
2023/05/25 08:37:42;;;;;;;33.90;22.30;;;;;;;19.46;65.83;100569.73;103618;1256;96506;-66
2023/05/25 08:40:16;;;;;;;29.50;21.70;;;;;;;19.73;65.48;100568.35;103365;1253;138258;-66
2023/05/25 08:42:44;;;;;;;26.70;20.60;;;;;;;20.29;64.85;100562.85;103675;1253;107971;-66
2023/05/25 08:45:12;;;;;;;22.00;19.50;;;;;;;20.82;63.57;100559.59;103588;1254;96498;-67
2023/05/25 08:48:01;;;;;;;24.50;19.60;;;;;;;21.24;62.07;100559.46;103543;1256;108908;-66
2023/05/25 08:50:31;;;;;;;28.20;21.00;;;;;;;21.35;60.99;100556.54;103485;1252;96310;-67
2023/05/25 08:53:02;;;;;;;24.00;19.80;;;;;;;21.60;60.55;100555.44;103975;1254;137690;-67
2023/05/25 08:55:35;;;;;;;23.40;18.70;;;;;;;21.91;59.85;100560.23;103653;1254;107570;-68
2023/05/25 08:58:07;;;;;;;21.70;18.70;;;;;;;22.12;58.70;100561.70;103339;1254;138001;-68
2023/05/25 09:00:38;;;;;;;26.10;19.40;;;;;;;22.21;57.96;100558.54;103363;1257;107801;-68
2023/05/25 09:03:11;;;;;;;26.60;19.70;;;;;;;22.20;57.54;100553.68;103383;1253;96551;-69
2023/05/25 09:05:40;;;;;;;23.40;19.20;;;;;;;22.27;57.38;100553.67;104015;1253;138074;-69
2023/05/25 09:08:09;;;;;;;28.40;20.80;;;;;;;22.31;56.78;100552.13;103265;1256;107868;-69
2023/05/25 09:10:37;;;;;;;25.80;20.30;;;;;;;22.33;56.22;100557.98;103280;1253;138113;-69
2023/05/25 09:13:05;;;;;;;21.90;19.60;;;;;;;22.28;55.83;100563.12;103369;1256;107033;-69
2023/05/25 09:15:47;;;;;;;25.20;19.40;;;;;;;22.32;55.46;100560.68;103341;1253;137897;-69
2023/05/25 09:18:14;;;;;;;22.30;18.80;;;;;;;22.46;55.28;100564.27;103402;1254;109937;-68
2023/05/25 09:20:42;;;;;;;24.50;17.80;;;;;;;22.61;55.35;100562.60;103414;1256;111932;-68
2023/05/25 09:23:13;;;;;;;22.20;18.00;;;;;;;22.69;54.37;100564.45;103306;1258;137874;-69
2023/05/25 09:25:42;;;;;;;25.60;18.10;;;;;;;22.65;54.44;100561.73;103395;1254;107573;-68
2023/05/25 09:28:10;;;;;;;24.70;19.80;;;;;;;22.99;54.73;100566.14;103266;1256;138911;-68
2023/05/25 09:30:41;;;;;;;27.20;20.20;;;;;;;23.48;53.88;100564.89;103447;1257;109105;-69
2023/05/25 09:33:12;;;;;;;22.90;18.50;;;;;;;24.15;53.43;100560.67;103348;1253;107876;-68
2023/05/25 09:35:41;;;;;;;20.70;16.00;;;;;;;24.42;51.83;100555.67;103348;1253;137987;-68
2023/05/25 09:38:08;;;;;;;28.60;19.00;;;;;;;24.59;51.49;100559.70;103323;1256;107187;-69
2023/05/25 09:40:38;;;;;;;27.80;19.90;;;;;;;24.85;50.76;100558.61;103297;1256;138031;-69
2023/05/25 09:43:05;;;;;;;24.10;19.00;;;;;;;24.88;49.82;100558.09;103443;1253;109776;-68
2023/05/25 09:45:32;;;;;;;23.20;18.00;;;;;;;24.59;48.95;100566.72;103353;1253;107201;-69
2023/05/25 09:48:02;;;;;;;22.80;18.50;;;;;;;24.32;49.73;100566.54;103370;1253;96403;-69
2023/05/25 09:50:31;;;;;;;26.60;19.10;;;;;;;24.19;49.84;100566.71;103415;1254;107174;-68
2023/05/25 09:53:00;;;;;;;25.70;18.30;;;;;;;24.00;49.98;100574.52;103276;1256;138424;-68
2023/05/25 09:55:29;;;;;;;28.50;18.30;;;;;;;23.83;50.07;100581.80;103464;1254;110979;-68
2023/05/25 09:58:17;;;;;;;23.90;18.50;;;;;;;23.50;50.05;100577.48;103291;1252;138043;-69
2023/05/25 10:00:44;;;;;;;23.30;17.90;;;;;;;23.22;50.33;100576.44;103448;1256;96520;-68
2023/05/25 10:03:14;;;;;;;24.10;19.10;;;;;;;22.98;50.57;100579.59;103733;1253;108118;-68
2023/05/25 10:05:41;;;;;;;22.70;17.70;;;;;;;22.70;51.03;100573.19;103250;1253;137716;-67
2023/05/25 10:08:10;;;;;;;27.80;19.30;;;;;;;22.47;51.50;100576.05;103355;1253;109417;-67
2023/05/25 10:10:38;;;;;;;26.00;18.40;;;;;;;22.18;51.99;100574.38;103264;1253;137784;-67
2023/05/25 10:13:10;;;;;;;24.30;19.70;;;;;;;22.00;52.61;100574.77;103399;1253;96403;-68
2023/05/25 10:15:40;;;;;;;26.00;19.00;;;;;;;21.94;53.06;100581.05;103372;1253;109522;-68
2023/05/25 10:18:09;;;;;;;26.10;18.60;;;;;;;21.79;53.26;100578.52;103449;1256;96530;-68
2023/05/25 10:20:38;;;;;;;24.40;19.50;;;;;;;21.65;53.47;100575.45;103381;1253;109005;-68
2023/05/25 10:23:09;;;;;;;20.60;18.10;;;;;;;21.58;53.89;100576.87;103205;1256;137759;-68
2023/05/25 10:25:44;;;;;;;23.40;19.00;;;;;;;21.51;54.03;100572.60;103404;1253;96470;-68
2023/05/25 10:28:15;;;;;;;25.80;18.70;;;;;;;21.37;54.00;100571.51;103266;1253;138541;-69
2023/05/25 10:30:43;;;;;;;22.90;19.10;;;;;;;21.17;54.26;100571.79;103513;1252;96468;-66
2023/05/25 10:33:12;;;;;;;25.90;19.30;;;;;;;21.07;54.79;100574.27;103396;1253;110251;-65
2023/05/25 10:35:42;;;;;;;33.50;18.40;;;;;;;21.08;55.26;100573.98;103320;1253;139070;-68
2023/05/25 10:38:30;;;;;;;28.00;18.60;;;;;;;21.11;55.50;100568.54;104462;1253;94530;-68
2023/05/25 10:40:58;;;;;;;25.30;17.80;;;;;;;21.19;55.65;100571.15;103273;1252;137867;-68
2023/05/25 10:43:26;;;;;;;26.00;18.20;;;;;;;21.28;55.64;100563.83;103282;1253;96296;-68
2023/05/25 10:45:54;;;;;;;21.90;16.60;;;;;;;21.35;55.53;100562.25;103229;1256;139060;-68
2023/05/25 10:48:23;;;;;;;21.70;16.10;;;;;;;21.42;55.99;100555.36;103320;1253;106788;-68
2023/05/25 10:50:53;;;;;;;25.40;16.60;;;;;;;21.58;55.88;100558.10;103419;1256;96427;-68
2023/05/25 10:53:22;;;;;;;29.90;17.00;;;;;;;21.73;55.75;100557.17;103537;1252;137839;-65
2023/05/25 10:56:04;;;;;;;29.50;16.00;;;;;;;21.91;55.63;100559.00;103397;1256;96436;-66
2023/05/25 10:58:32;;;;;;;23.70;17.10;;;;;;;22.13;55.43;100555.64;103318;1253;137824;-68
2023/05/25 11:01:02;;;;;;;52.70;32.50;;;;;;;22.27;55.33;100552.92;103359;1256;108875;-72
2023/05/25 11:03:50;;;;;;;24.70;15.60;;;;;;;22.60;55.39;100554.67;103325;1253;97321;-70
2023/05/25 11:06:20;;;;;;;24.90;14.40;;;;;;;23.20;55.26;100555.27;103383;1253;108158;-69